LIEELIEO

Guest
Details From LIEE - Cagliari Elmas
To LIEO - OLBIA COSTA SMERALDA
Flight Number -
Tags generated
Created
Modified
Stats Distance 101 nm / 188 km
Max Altitude 2,400 ft / 732 m
Waypoints 3
Social Downloads 3
Likes 0
Share VATSIM

Download

Looking for another format? Having issues loading an existing format? Contact us
Advertisement - Login to hide

Notes

Basic altitude profile: - Ascent Rate: 2500ft/min - Ascent Speed: 250kts - Cruise Altitude: 210ft - Cruise Speed: 330kts - Descent Rate: 1500ft/min - Descent Speed: 250kts Options: - Use NATs: yes - Use PACOTS: yes - Use low airways: yes - Use high airways: yes

Route

LIEE KOLUS LIEO

ID Type Via Altitude Latitude Longitude Leg Dist Tot Dist Heading (true) Name
O LIEE APT - 0 ft / 0 m 39.25147˚ 9.05429˚ - 0 nm - Cagliari Elmas
KOLUS FIX - 2,400 ft / 732 m 40.71806˚ 9.44111˚ 89 nm 89 nm 11° / 12° -
O LIEO APT - 0 ft / 0 m 40.89866˚ 9.51763˚ 11 nm 101 nm 18° / 18° OLBIA COSTA SMERALDA

Altitude Profile

Advertisement - Login to hide

LIEE

Details ICAO LIEE (CAG)
Name Cagliari Elmas
Region Italy
Timezone Europe/Rome (UTC+2.0)
Stats Elevation 13 ft / 4 m (AMSL)
Location 39.251475° 9.054291°
Runways 1
Magnetic Variation 2.341° E

METAR

LIEE 201020Z 19007KT CAVOK 22/13 Q1013

Decode

TAF

TAF LIEE 200500Z 2006/2106 VRB05KT 9999 SCT030 BECMG 2010/2012 16012KT TEMPO 2012/2018 4000 SHRA BECMG 2016/2018 VRB05KT

Decode

Departure Runways

ID Width Length Bearing (true) Bearing (mag) Surface Threshold Offset Overrun Length
14 148 ft / 45 m 9,157 ft / 2,791 m 138.08° 135.74° Asphalt 0 ft / 0 m 187 ft / 57 m
32 148 ft / 45 m 9,157 ft / 2,791 m 318.09° 315.75° Asphalt 0 ft / 0 m 0 ft / 0 m

LIEO

Details ICAO LIEO (OLB)
Name OLBIA COSTA SMERALDA
Region Italy
Timezone Europe/Rome (UTC+2.0)
Stats Elevation 37 ft / 11 m (AMSL)
Location 40.898661° 9.517629°
Runways 1
Magnetic Variation 2.487° E

METAR

LIEO 201020Z 06008KT 020V090 CAVOK 23/15 Q1014

Decode

TAF

TAF LIEO 200500Z 2006/2106 VRB05KT 9999 FEW030 BECMG 2010/2012 05012KT BECMG 2016/2018 VRB05KT TEMPO 2021/2106 4000 SHRA

Decode

Destination Runways

ID Width Length Bearing (true) Bearing (mag) Surface Threshold Offset Overrun Length
06 148 ft / 45 m 8,013 ft / 2,442 m 55.30° 52.81° Asphalt 805 ft / 245 m 180 ft / 55 m
24 148 ft / 45 m 8,013 ft / 2,442 m 235.31° 232.82° Asphalt 495 ft / 151 m 180 ft / 55 m

Approach Navaids

Runway Type Ident Frequency Range Bearing (true) Bearing (mag) Slope Elevation
06 Localiser ISM 109.90 MHz 18 nm / 33 km 55.31° 52.82° - 36 ft / 11 m (AMSL)
06 Glidescope ISM 109.90 MHz 10 nm / 19 km 55.30° 52.82° 3.50° 36 ft / 11 m (AMSL)
06 DME ISM 109.90 MHz 18 nm / 33 km - - - 36 ft / 11 m (AMSL)
24 Localiser IOL 111.30 MHz 20 nm / 37 km 235.31° 232.82° - 36 ft / 11 m (AMSL)
24 Glidescope IOL 111.30 MHz 10 nm / 19 km 235.31° 232.82° 3.00° 36 ft / 11 m (AMSL)
24 DME IOL 111.30 MHz 25 nm / 46 km - - - 36 ft / 11 m (AMSL)

Popular Alternatives